Terminal Aerodrome Forecast
Issued by NWS Wilmington, OH

Home | Current Version | Previous Version | Text Only | Print | Product List | Glossary On
Versions: 1 2 3 4 5 6 7 8 9 10 11 12 13 14 15 16 17 18 19 20 21
000
FTUS41 KILN 310500
TAFCVG
TAF
KCVG 310532Z 3106/0112 19005KT 3SM -SHRA BR OVC040
     FM310900 18006KT 3SM -SHRA BR OVC025
     FM311200 18005KT 2SM -SHRA BR OVC015
     FM311400 20006KT 2SM -SHRA BR VCTS OVC007CB
     FM311800 21008KT P6SM VCTS OVC020CB
     FM312100 21006KT P6SM BKN035
     FM010600 21005KT 5SM BR BKN035
     FM011000 20005KT 4SM BR BKN015=

USA.gov is the U.S. government's official web portal to all federal, state and local government web resources and services.